Time;durP1;ratioP1;P1;durP2;ratioP2;P2;SDS_P1;SDS_P2;PMS_P1;PMS_P2;Temp;Humidity;BMP_temperature;BMP_pressure;BME280_temperature;BME280_humidity;BME280_pressure;Samples;Min_cycle;Max_cycle;Signal;HPM_P1;HPM_P2
2022/04/30 04:00:12;;;;;;;12.67;8.70;;;5.80;99.90;;;;;;5980804;23;20299;31
2022/04/30 04:02:41;;;;;;;12.95;8.80;;;5.80;99.90;;;;;;4933638;29;20228;-69
2022/04/30 04:05:12;;;;;;;10.43;9.05;;;5.90;99.90;;;;;;4935436;29;20301;-69
2022/04/30 04:07:38;;;;;;;12.02;8.75;;;5.80;99.90;;;;;;4936001;29;20217;-69
2022/04/30 04:10:06;;;;;;;12.52;8.73;;;5.80;99.90;;;;;;4935121;29;20562;-70
2022/04/30 04:12:33;;;;;;;10.93;7.68;;;5.80;99.90;;;;;;4935623;29;20265;-69
2022/04/30 04:17:45;;;;;;;9.10;7.43;;;5.80;99.90;;;;;;4927958;29;20489;-68
2022/04/30 04:20:13;;;;;;;13.55;9.18;;;5.80;99.90;;;;;;4934534;29;20218;-68
2022/04/30 04:22:40;;;;;;;11.52;8.60;;;5.80;99.90;;;;;;4935602;29;20246;-69
2022/04/30 04:27:54;;;;;;;12.00;9.52;;;5.80;99.90;;;;;;4935513;29;20196;-69
2022/04/30 04:30:21;;;;;;;11.38;8.27;;;5.90;99.90;;;;;;4935273;29;20212;-69
2022/04/30 04:32:49;;;;;;;10.48;7.95;;;5.90;99.90;;;;;;4935317;29;20308;-69
2022/04/30 04:35:17;;;;;;;12.93;9.23;;;5.90;99.90;;;;;;4935027;29;20245;-68
2022/04/30 04:37:44;;;;;;;11.57;9.32;;;5.90;99.90;;;;;;4935522;29;20206;-69
2022/04/30 04:40:12;;;;;;;18.00;9.70;;;6.00;99.90;;;;;;4934505;29;20781;-69
2022/04/30 04:42:40;;;;;;;11.70;7.85;;;6.00;99.90;;;;;;4935151;29;20217;-69
2022/04/30 04:45:08;;;;;;;10.32;8.05;;;6.00;99.90;;;;;;4935027;29;20230;-69
2022/04/30 04:47:36;;;;;;;10.63;8.93;;;6.00;99.90;;;;;;4934941;29;20567;-69
2022/04/30 04:50:04;;;;;;;14.15;9.00;;;6.20;99.90;;;;;;4935650;29;20242;-68
2022/04/30 04:52:31;;;;;;;10.30;8.63;;;6.30;99.90;;;;;;4939182;29;20624;-69
2022/04/30 04:54:58;;;;;;;10.02;9.00;;;6.50;99.90;;;;;;4939875;29;20217;-68
2022/04/30 04:57:25;;;;;;;10.50;8.20;;;6.80;99.90;;;;;;4940115;29;20206;-69
2022/04/30 04:59:53;;;;;;;10.20;8.20;;;7.20;99.90;;;;;;4938093;29;20229;-69
2022/04/30 05:02:20;;;;;;;8.77;7.88;;;7.40;99.90;;;;;;4939764;29;20361;-69
2022/04/30 05:04:47;;;;;;;10.90;8.50;;;7.70;99.90;;;;;;4940970;29;20257;-69
2022/04/30 05:07:15;;;;;;;7.65;6.93;;;7.90;99.90;;;;;;4943533;29;20202;-68
2022/04/30 05:09:42;;;;;;;8.00;7.15;;;8.00;99.90;;;;;;4937903;29;20272;-68
2022/04/30 05:12:09;;;;;;;11.15;8.70;;;8.00;99.90;;;;;;4937052;29;20234;-68
2022/04/30 05:14:36;;;;;;;7.78;7.00;;;7.90;99.90;;;;;;4936421;29;20715;-69
2022/04/30 05:17:05;;;;;;;9.73;7.68;;;7.90;99.90;;;;;;4936989;29;20260;-69
2022/04/30 05:19:32;;;;;;;7.60;6.90;;;7.90;99.90;;;;;;4933758;29;20571;-69
2022/04/30 05:21:58;;;;;;;7.32;6.63;;;7.90;99.90;;;;;;4934532;29;20233;-68
2022/04/30 05:24:27;;;;;;;9.60;8.35;;;7.90;99.90;;;;;;4934338;29;20233;-67
2022/04/30 05:26:53;;;;;;;9.18;7.53;;;7.90;99.90;;;;;;4934460;29;20313;-68
2022/04/30 05:29:20;;;;;;;9.38;7.43;;;7.90;99.90;;;;;;4933819;29;20278;-69
2022/04/30 05:31:46;;;;;;;10.63;7.55;;;8.00;99.90;;;;;;4933915;29;20234;-68
2022/04/30 05:34:13;;;;;;;9.98;7.28;;;8.00;99.90;;;;;;4933685;29;20635;-68
2022/04/30 05:36:40;;;;;;;7.78;7.00;;;8.10;99.90;;;;;;4934054;29;20218;-69
2022/04/30 05:39:07;;;;;;;7.55;6.85;;;8.10;99.90;;;;;;4934167;29;20209;-69
2022/04/30 05:41:35;;;;;;;8.75;7.93;;;8.20;99.90;;;;;;4933597;29;20229;-67
2022/04/30 05:44:01;;;;;;;8.95;6.30;;;8.10;99.90;;;;;;4933872;29;20220;-68
2022/04/30 05:46:28;;;;;;;7.80;7.00;;;8.10;99.90;;;;;;4934003;29;20293;-70
2022/04/30 05:48:54;;;;;;;8.35;7.65;;;8.10;99.90;;;;;;4933407;29;20261;-69
2022/04/30 05:51:21;;;;;;;8.27;7.18;;;8.10;99.90;;;;;;4933058;29;20297;-69
2022/04/30 05:53:48;;;;;;;9.13;7.85;;;8.20;99.90;;;;;;4932169;29;20206;-69
2022/04/30 05:56:14;;;;;;;10.50;7.85;;;8.20;99.90;;;;;;4933953;29;20198;-70
2022/04/30 05:58:42;;;;;;;8.63;7.82;;;8.30;99.90;;;;;;4933741;29;20640;-68
2022/04/30 06:01:09;;;;;;;7.50;6.80;;;8.30;99.90;;;;;;4932981;29;20309;-69
2022/04/30 06:03:36;;;;;;;8.30;7.35;;;8.50;99.90;;;;;;4933284;29;20209;-68
2022/04/30 06:06:03;;;;;;;7.22;6.60;;;9.10;99.90;;;;;;4933572;29;20650;-69
2022/04/30 06:08:29;;;;;;;9.60;6.53;;;9.60;99.90;;;;;;4933624;29;20217;-68
2022/04/30 06:10:56;;;;;;;6.70;5.93;;;10.30;99.90;;;;;;4933116;29;20855;-68
2022/04/30 06:13:23;;;;;;;6.40;5.90;;;11.20;99.90;;;;;;4933407;29;20569;-69
2022/04/30 06:15:51;;;;;;;6.53;6.03;;;11.80;99.90;;;;;;4933279;29;20462;-67
2022/04/30 06:18:20;;;;;;;5.70;5.20;;;12.30;99.90;;;;;;4933503;29;20473;-68
2022/04/30 06:20:47;;;;;;;6.20;5.60;;;12.80;99.90;;;;;;4932409;29;20994;-68
2022/04/30 06:23:15;;;;;;;5.57;5.17;;;13.30;99.90;;;;;;4933840;29;20540;-68
2022/04/30 06:25:42;;;;;;;6.00;5.43;;;13.80;99.90;;;;;;4933691;29;20579;-69
2022/04/30 06:28:09;;;;;;;5.73;5.33;;;14.30;99.90;;;;;;4933788;29;20469;-69
2022/04/30 06:30:35;;;;;;;5.03;4.73;;;14.80;99.90;;;;;;4933006;29;20485;-68
2022/04/30 06:33:03;;;;;;;5.00;4.80;;;15.20;99.90;;;;;;4933823;29;20465;-67
2022/04/30 06:35:30;;;;;;;5.90;5.47;;;15.70;99.90;;;;;;4933491;29;20465;-67
2022/04/30 06:37:57;;;;;;;6.67;5.20;;;16.10;99.90;;;;;;4933706;29;20517;-67
2022/04/30 06:40:23;;;;;;;5.70;5.30;;;16.40;99.90;;;;;;4933201;29;20469;-69
2022/04/30 06:42:50;;;;;;;5.43;4.63;;;16.80;99.90;;;;;;4933296;29;20506;-67
2022/04/30 06:45:17;;;;;;;6.10;5.80;;;16.90;99.90;;;;;;4934639;29;20939;-67
2022/04/30 06:47:44;;;;;;;5.80;5.43;;;17.00;99.90;;;;;;4937236;29;20476;-69
2022/04/30 06:50:12;;;;;;;4.40;4.20;;;16.90;99.90;;;;;;4936404;29;20525;-67
2022/04/30 06:57:07;;;;;;;5.80;5.30;;;17.10;99.90;;;;;;4937303;29;20465;-68
2022/04/30 06:58:11;;;;;;;4.37;4.13;;;17.00;99.90;;;;;;4936753;29;20457;-67
2022/04/30 07:03:24;;;;;;;4.53;3.90;;;17.10;99.90;;;;;;4936879;29;20601;-67
2022/04/30 07:05:55;;;;;;;5.17;4.97;;;17.00;99.90;;;;;;4936383;29;21036;-68
2022/04/30 07:08:22;;;;;;;4.50;4.20;;;17.40;99.90;;;;;;4937028;29;20560;-69
2022/04/30 07:10:49;;;;;;;4.67;4.40;;;17.50;99.90;;;;;;4936064;29;20882;-68
2022/04/30 07:13:15;;;;;;;4.80;4.40;;;17.80;99.90;;;;;;4936619;29;20532;-68
2022/04/30 07:15:42;;;;;;;4.73;4.40;;;18.00;99.90;;;;;;4936485;29;20524;-67
2022/04/30 07:18:08;;;;;;;3.90;3.80;;;17.50;99.90;;;;;;4936413;29;20954;-68
2022/04/30 07:20:35;;;;;;;4.70;4.50;;;17.40;99.90;;;;;;4935609;29;20489;-69
2022/04/30 07:23:04;;;;;;;4.57;4.47;;;17.50;99.90;;;;;;4936926;29;20888;-70
2022/04/30 07:25:30;;;;;;;4.47;4.17;;;17.90;99.90;;;;;;4936279;29;20489;-70
2022/04/30 07:27:57;;;;;;;4.27;4.07;;;18.20;99.90;;;;;;4936566;29;20517;-69
2022/04/30 07:30:23;;;;;;;4.13;3.80;;;18.20;99.90;;;;;;4936100;29;20524;-67
2022/04/30 07:32:50;;;;;;;3.83;3.70;;;17.90;99.90;;;;;;4931064;29;20947;-68
2022/04/30 07:35:17;;;;;;;4.87;4.67;;;17.20;99.90;;;;;;4935554;29;20517;-67
2022/04/30 07:37:43;;;;;;;5.50;5.10;;;16.80;99.90;;;;;;4936645;29;20480;-67
2022/04/30 07:40:13;;;;;;;4.33;4.03;;;16.30;99.90;;;;;;4935694;29;20548;-68
2022/04/30 07:42:39;;;;;;;5.13;4.73;;;16.20;99.90;;;;;;4936242;29;20505;-67
2022/04/30 07:45:06;;;;;;;4.80;4.50;;;15.90;99.90;;;;;;4936190;29;20485;-67
2022/04/30 07:47:33;;;;;;;6.43;4.20;;;15.80;99.90;;;;;;4935802;29;20536;-68
2022/04/30 07:49:59;;;;;;;4.50;4.30;;;15.60;99.90;;;;;;4935516;29;20473;-68
2022/04/30 07:52:26;;;;;;;4.90;4.60;;;15.20;99.90;;;;;;4935720;29;20493;-67
2022/04/30 07:54:53;;;;;;;4.53;4.33;;;14.90;99.90;;;;;;4935856;29;20470;-68
2022/04/30 07:57:21;;;;;;;4.40;4.10;;;14.70;99.90;;;;;;4935831;29;20473;-68
2022/04/30 07:59:48;;;;;;;5.67;4.90;;;14.60;99.90;;;;;;4934972;29;20489;-69
2022/04/30 08:02:14;;;;;;;3.60;3.30;;;14.40;99.90;;;;;;4934689;29;20501;-68
2022/04/30 08:04:41;;;;;;;6.00;4.20;;;14.10;99.90;;;;;;4935636;29;20551;-68
2022/04/30 08:07:07;;;;;;;4.60;4.30;;;14.00;99.90;;;;;;4935712;29;20461;-68
2022/04/30 08:09:34;;;;;;;5.10;4.43;;;13.60;99.90;;;;;;4935135;29;20476;-69
2022/04/30 08:12:01;;;;;;;6.00;4.27;;;13.50;99.90;;;;;;4935590;29;21030;-67
2022/04/30 08:14:29;;;;;;;3.70;3.50;;;13.60;99.90;;;;;;4935663;29;20537;-67
2022/04/30 08:16:56;;;;;;;6.20;3.37;;;13.70;99.90;;;;;;4935419;29;20458;-68
2022/04/30 08:19:22;;;;;;;2.83;2.73;;;13.60;99.90;;;;;;4934773;29;20465;-69
2022/04/30 08:21:50;;;;;;;6.30;3.63;;;13.60;99.90;;;;;;4934907;29;20489;-68
2022/04/30 08:24:16;;;;;;;3.73;3.43;;;13.60;99.90;;;;;;4935316;29;20458;-68
2022/04/30 08:26:44;;;;;;;5.90;4.40;;;13.50;99.90;;;;;;4935717;29;20544;-68
2022/04/30 08:29:11;;;;;;;3.77;3.57;;;13.40;99.90;;;;;;4937483;29;20469;-68
2022/04/30 08:31:39;;;;;;;3.30;3.10;;;13.30;99.90;;;;;;4937616;29;21145;-67
2022/04/30 08:34:05;;;;;;;3.50;3.27;;;13.20;99.90;;;;;;4937665;29;20477;-68
2022/04/30 08:36:32;;;;;;;3.73;3.43;;;13.20;99.90;;;;;;4936128;29;20990;-68
2022/04/30 08:38:59;;;;;;;2.60;2.50;;;13.20;99.90;;;;;;4935355;29;20466;-68
2022/04/30 08:41:25;;;;;;;3.50;3.30;;;13.30;99.90;;;;;;4934284;29;20499;-68
2022/04/30 08:43:52;;;;;;;3.30;3.00;;;13.30;99.90;;;;;;4935151;29;20469;-68
2022/04/30 08:46:20;;;;;;;3.20;3.00;;;13.30;99.90;;;;;;4935339;29;20507;-68
2022/04/30 08:48:48;;;;;;;2.90;2.80;;;13.30;99.90;;;;;;4934908;29;20783;-69
2022/04/30 08:51:16;;;;;;;3.03;2.83;;;13.30;99.90;;;;;;4934174;29;20573;-68
2022/04/30 08:53:43;;;;;;;3.63;3.43;;;13.30;99.90;;;;;;4932964;29;20469;-69
2022/04/30 08:56:10;;;;;;;4.00;3.70;;;13.30;99.90;;;;;;4934865;29;20458;-67
2022/04/30 08:58:37;;;;;;;3.20;2.87;;;13.30;99.90;;;;;;4934723;29;20524;-69
2022/04/30 09:01:05;;;;;;;3.53;3.23;;;13.40;99.90;;;;;;4934145;29;20904;-69
2022/04/30 09:03:35;;;;;;;3.40;3.20;;;13.40;99.90;;;;;;4934082;29;20889;-68
2022/04/30 09:06:04;;;;;;;3.27;3.00;;;13.40;99.90;;;;;;4933946;29;20544;-69
2022/04/30 09:08:31;;;;;;;3.50;2.90;;;13.30;99.90;;;;;;4934714;29;20762;-68
2022/04/30 09:11:05;;;;;;;4.10;3.43;;;13.30;99.90;;;;;;4933783;29;20489;-68
2022/04/30 09:13:32;;;;;;;3.90;3.60;;;13.40;99.90;;;;;;4934819;29;20533;-68
2022/04/30 09:15:59;;;;;;;3.90;3.47;;;13.40;99.90;;;;;;4934765;29;20469;-69
2022/04/30 09:18:26;;;;;;;4.03;3.73;;;13.40;99.90;;;;;;4934189;29;20469;-67
2022/04/30 09:20:55;;;;;;;2.70;2.70;;;13.50;99.90;;;;;;4933546;29;20933;-67
2022/04/30 09:23:27;;;;;;;3.00;2.87;;;13.50;99.90;;;;;;4934225;29;20553;-70
2022/04/30 09:25:55;;;;;;;4.50;4.20;;;13.50;99.90;;;;;;4933985;29;20505;-70
2022/04/30 09:28:26;;;;;;;3.00;2.80;;;13.50;99.90;;;;;;4934867;29;20469;-68
2022/04/30 09:31:04;;;;;;;3.80;3.60;;;13.60;99.90;;;;;;4933759;29;20489;-68
2022/04/30 09:33:31;;;;;;;5.70;4.57;;;13.70;99.90;;;;;;4933905;29;20465;-68
2022/04/30 09:38:48;;;;;;;3.73;3.43;;;13.80;99.90;;;;;;4934328;29;20469;-70
2022/04/30 09:41:14;;;;;;;4.10;3.87;;;13.80;99.90;;;;;;4933767;29;20580;-68
2022/04/30 09:43:42;;;;;;;4.90;4.43;;;13.80;99.90;;;;;;4926403;29;20466;-68
2022/04/30 09:46:09;;;;;;;4.43;4.00;;;13.90;99.90;;;;;;4933775;29;20860;-67
2022/04/30 09:54:07;;;;;;;3.93;3.50;;;14.20;99.90;;;;;;4933763;29;20950;-68
2022/04/30 09:56:36;;;;;;;6.57;3.90;;;14.20;99.90;;;;;;4933793;29;20863;-68
2022/04/30 09:59:05;;;;;;;3.67;3.40;;;14.40;99.90;;;;;;4933623;29;20480;-69
2022/04/30 10:01:34;;;;;;;4.20;3.77;;;14.60;99.90;;;;;;4933069;29;20494;-68
2022/04/30 10:04:06;;;;;;;3.90;3.70;;;14.70;99.90;;;;;;4933534;29;20556;-68
2022/04/30 10:06:34;;;;;;;3.47;3.27;;;14.80;99.90;;;;;;4933308;29;20489;-69
2022/04/30 10:09:02;;;;;;;3.57;3.33;;;14.90;99.90;;;;;;4933939;29;20939;-68
2022/04/30 10:11:38;;;;;;;4.60;4.20;;;14.70;99.90;;;;;;4933456;29;20485;-68
2022/04/30 10:14:17;;;;;;;3.70;3.33;;;14.70;99.90;;;;;;4934357;29;20481;-70
2022/04/30 10:17:09;;;;;;;6.57;3.70;;;14.70;99.90;;;;;;4933971;29;20497;-68
2022/04/30 10:19:33;;;;;;;4.07;3.27;;;14.90;99.90;;;;;;4932682;29;20491;-69
2022/04/30 10:22:10;;;;;;;4.07;3.57;;;15.00;99.90;;;;;;4930903;29;20500;-69
2022/04/30 10:24:42;;;;;;;3.27;3.17;;;15.20;99.90;;;;;;4933506;29;20462;-69
2022/04/30 10:27:10;;;;;;;4.00;3.70;;;15.40;99.90;;;;;;4933518;29;20850;-69
2022/04/30 10:29:37;;;;;;;4.47;4.20;;;15.40;99.90;;;;;;4932884;29;20465;-69
2022/04/30 10:32:04;;;;;;;3.87;3.57;;;15.50;99.90;;;;;;4933051;29;20497;-69
2022/04/30 10:34:32;;;;;;;5.07;3.13;;;15.40;99.90;;;;;;4932983;29;20481;-68
2022/04/30 10:37:02;;;;;;;2.93;2.83;;;15.50;99.90;;;;;;4933686;29;20524;-69
2022/04/30 10:39:28;;;;;;;3.80;3.23;;;15.50;99.90;;;;;;4933630;29;20576;-70
2022/04/30 10:41:55;;;;;;;4.93;3.10;;;15.50;99.90;;;;;;4933308;29;20489;-69
2022/04/30 10:44:30;;;;;;;2.90;2.80;;;15.60;99.90;;;;;;4933353;29;20521;-69
2022/04/30 10:47:08;;;;;;;3.20;3.00;;;15.50;99.90;;;;;;4933124;29;21073;-69
2022/04/30 10:49:35;;;;;;;2.80;2.67;;;15.60;99.90;;;;;;4932692;29;20645;-69
2022/04/30 10:52:03;;;;;;;3.37;3.10;;;15.50;99.90;;;;;;4933322;29;20636;-69
2022/04/30 10:54:30;;;;;;;4.10;3.70;;;15.60;99.90;;;;;;4933380;29;20480;-69
2022/04/30 10:57:01;;;;;;;3.07;2.80;;;15.40;99.90;;;;;;4933438;29;20481;-69
2022/04/30 10:59:29;;;;;;;2.67;2.50;;;15.40;99.90;;;;;;4934036;29;20537;-69
2022/04/30 11:01:56;;;;;;;3.03;2.93;;;15.30;99.90;;;;;;4933668;29;20899;-69
2022/04/30 11:04:24;;;;;;;4.30;3.63;;;15.30;99.90;;;;;;4933679;29;20473;-69
2022/04/30 11:06:52;;;;;;;3.80;3.50;;;15.30;99.90;;;;;;4934019;29;20515;-70
2022/04/30 11:09:20;;;;;;;2.17;2.17;;;15.40;99.90;;;;;;4933883;29;20556;-70
2022/04/30 11:11:48;;;;;;;2.30;2.20;;;15.60;99.90;;;;;;4926141;29;20492;-70
2022/04/30 11:14:16;;;;;;;2.83;2.63;;;15.30;99.90;;;;;;4934524;29;20473;-70
2022/04/30 11:16:46;;;;;;;2.97;2.77;;;15.30;99.90;;;;;;4934534;29;20532;-70
2022/04/30 11:19:14;;;;;;;2.83;2.73;;;15.10;99.90;;;;;;4933843;29;20902;-69
2022/04/30 11:21:43;;;;;;;5.30;3.10;;;14.90;99.90;;;;;;4932666;29;20979;-69
2022/04/30 11:24:10;;;;;;;3.37;3.07;;;14.80;99.90;;;;;;4933952;29;20476;-69
2022/04/30 11:26:37;;;;;;;3.20;3.00;;;14.80;99.90;;;;;;4933680;29;20557;-69
2022/04/30 11:29:08;;;;;;;3.87;2.33;;;14.80;99.90;;;;;;4936648;29;20516;-69
2022/04/30 11:31:35;;;;;;;3.03;2.93;;;14.80;99.90;;;;;;4936011;29;20576;-69
2022/04/30 11:34:09;;;;;;;2.90;2.70;;;14.80;99.90;;;;;;4936339;29;20481;-69
2022/04/30 11:36:40;;;;;;;2.70;2.53;;;14.80;99.90;;;;;;4936327;29;20548;-69
2022/04/30 11:39:07;;;;;;;2.63;2.53;;;14.80;99.90;;;;;;4936647;29;20480;-69
2022/04/30 11:41:38;;;;;;;2.30;2.20;;;14.70;99.90;;;;;;4936497;29;20489;-69
2022/04/30 11:44:06;;;;;;;2.40;2.30;;;14.60;99.90;;;;;;4928892;29;20966;-69
2022/04/30 11:46:32;;;;;;;2.57;2.47;;;14.70;99.90;;;;;;4936213;29;20482;-69
2022/04/30 11:48:59;;;;;;;1.70;1.70;;;14.70;99.90;;;;;;4935685;29;20605;-70
2022/04/30 11:51:29;;;;;;;2.57;2.47;;;14.70;99.90;;;;;;4935263;29;20490;-69
2022/04/30 11:53:56;;;;;;;2.90;2.70;;;14.70;99.90;;;;;;4936456;29;20465;-69
2022/04/30 11:56:23;;;;;;;2.43;2.30;;;14.60;99.90;;;;;;4936215;29;20520;-70
2022/04/30 11:58:49;;;;;;;2.50;2.40;;;14.60;99.90;;;;;;4935971;29;20843;-69
2022/04/30 12:01:22;;;;;;;2.17;2.17;;;14.60;99.90;;;;;;4935511;29;20497;-69
2022/04/30 12:03:58;;;;;;;2.10;2.00;;;14.60;99.90;;;;;;4935381;29;20469;-69
2022/04/30 12:06:26;;;;;;;2.13;2.03;;;14.60;99.90;;;;;;4935820;29;20485;-69
2022/04/30 12:08:54;;;;;;;4.07;2.30;;;14.60;99.90;;;;;;4936051;29;20465;-68
2022/04/30 12:11:22;;;;;;;2.53;2.43;;;14.70;99.90;;;;;;4935300;29;20915;-68
2022/04/30 12:13:59;;;;;;;2.40;2.30;;;14.70;99.90;;;;;;4935812;29;20640;-68
2022/04/30 12:16:33;;;;;;;2.77;2.60;;;14.70;99.90;;;;;;4935929;29;20467;-69
2022/04/30 12:27:21;;;;;;;3.37;3.17;;;14.70;99.90;;;;;;4931048;29;20493;-69
2022/04/30 12:29:48;;;;;;;2.87;2.67;;;14.80;99.90;;;;;;4935321;29;20465;-70
2022/04/30 12:32:17;;;;;;;2.67;2.00;;;14.90;99.90;;;;;;4929699;29;20560;-68
2022/04/30 12:34:44;;;;;;;3.42;2.90;;;14.90;99.90;;;;;;4931015;29;21165;-68
2022/04/30 12:37:11;;;;;;;5.50;2.23;;;15.10;99.90;;;;;;4937147;29;20301;-68
2022/04/30 12:39:40;;;;;;;3.07;2.50;;;15.00;99.90;;;;;;4932892;29;20474;-68
2022/04/30 12:42:09;;;;;;;1.80;1.80;;;15.10;99.90;;;;;;4935628;29;20580;-68
2022/04/30 12:44:36;;;;;;;2.83;2.73;;;15.10;99.90;;;;;;4936972;29;20464;-69
2022/04/30 12:47:03;;;;;;;2.37;2.27;;;15.10;99.90;;;;;;4945719;28;20575;-68
2022/04/30 12:49:30;;;;;;;2.37;2.20;;;15.10;99.90;;;;;;4954210;28;20520;-68
2022/04/30 12:51:56;;;;;;;2.00;1.90;;;15.20;99.80;;;;;;4953922;28;20484;-69
2022/04/30 12:54:23;;;;;;;2.07;1.90;;;15.10;99.30;;;;;;4954286;28;20476;-69
2022/04/30 12:56:51;;;;;;;4.80;1.90;;;15.30;98.80;;;;;;4954012;28;20460;-68
2022/04/30 12:59:18;;;;;;;2.00;1.90;;;15.40;98.90;;;;;;4953758;28;20469;-69
2022/04/30 13:01:45;;;;;;;2.27;2.07;;;15.40;97.70;;;;;;4953197;28;20555;-69
2022/04/30 13:04:12;;;;;;;2.50;2.40;;;15.50;97.40;;;;;;4953218;28;20548;-68
2022/04/30 13:06:38;;;;;;;2.23;1.67;;;15.50;97.60;;;;;;4953184;28;20556;-68
2022/04/30 13:14:35;;;;;;;1.90;1.90;;;15.40;97.30;;;;;;4934269;29;20605;-68
2022/04/30 13:17:03;;;;;;;2.20;2.13;;;15.40;97.50;;;;;;4934108;29;20544;-68
2022/04/30 13:19:30;;;;;;;2.27;2.17;;;15.50;97.60;;;;;;4934012;29;20491;-68
2022/04/30 13:21:57;;;;;;;3.50;3.20;;;15.50;97.90;;;;;;4934500;29;20485;-68
2022/04/30 13:24:24;;;;;;;2.73;2.53;;;15.60;97.90;;;;;;4934626;29;20525;-68
2022/04/30 13:26:52;;;;;;;2.20;2.20;;;15.70;97.50;;;;;;4934583;29;20658;-69
2022/04/30 13:29:19;;;;;;;4.37;2.40;;;15.70;97.30;;;;;;4934429;29;20472;-69
2022/04/30 13:31:46;;;;;;;1.80;1.63;;;15.70;96.60;;;;;;4933905;29;20496;-68
2022/04/30 13:34:12;;;;;;;1.80;1.70;;;15.50;96.40;;;;;;4934172;29;20528;-68
2022/04/30 13:36:40;;;;;;;2.40;2.30;;;15.40;97.20;;;;;;4934136;29;20610;-69
2022/04/30 13:39:07;;;;;;;2.83;2.00;;;15.50;96.80;;;;;;4934126;29;20493;-68
2022/04/30 13:41:34;;;;;;;2.00;1.90;;;15.50;97.20;;;;;;4933768;29;20489;-69
2022/04/30 13:44:02;;;;;;;1.87;1.87;;;15.60;97.00;;;;;;4926383;29;20862;-67
2022/04/30 13:46:28;;;;;;;3.10;2.40;;;15.60;97.20;;;;;;4933956;29;20881;-67
2022/04/30 13:48:56;;;;;;;2.77;2.57;;;15.80;97.40;;;;;;4933614;29;20465;-68
2022/04/30 13:51:23;;;;;;;2.70;2.60;;;16.00;97.20;;;;;;4932897;29;20497;-67
2022/04/30 13:53:49;;;;;;;3.00;2.90;;;16.00;96.70;;;;;;4934340;29;20477;-68
2022/04/30 13:56:16;;;;;;;2.77;2.67;;;16.20;96.90;;;;;;4934603;29;20887;-68
2022/04/30 13:58:43;;;;;;;2.37;2.27;;;16.20;96.40;;;;;;4934016;29;20466;-69
2022/04/30 14:01:12;;;;;;;4.07;2.10;;;16.30;96.40;;;;;;4933101;29;21183;-69
2022/04/30 14:03:40;;;;;;;3.00;2.80;;;16.40;97.00;;;;;;4933674;29;20474;-68
2022/04/30 14:06:06;;;;;;;2.63;2.53;;;16.30;96.20;;;;;;4933739;29;20466;-69
2022/04/30 14:08:33;;;;;;;3.10;2.90;;;16.30;96.30;;;;;;4933802;29;20545;-69
2022/04/30 14:11:00;;;;;;;2.70;2.50;;;16.30;96.80;;;;;;4933099;29;20489;-69
2022/04/30 14:16:12;;;;;;;3.20;2.70;;;16.30;96.80;;;;;;4933794;29;20457;-69
2022/04/30 14:18:39;;;;;;;2.00;2.00;;;16.50;96.70;;;;;;4933486;29;20532;-69
2022/04/30 14:21:08;;;;;;;2.77;2.57;;;16.60;96.40;;;;;;4932377;29;20531;-69
2022/04/30 14:23:35;;;;;;;3.77;3.30;;;16.70;95.90;;;;;;4933206;29;20470;-69
2022/04/30 14:26:03;;;;;;;3.10;2.90;;;16.70;95.50;;;;;;4933669;29;20628;-69
2022/04/30 14:28:30;;;;;;;3.43;3.00;;;16.70;95.10;;;;;;4933554;29;20489;-69
2022/04/30 14:30:57;;;;;;;6.43;3.20;;;16.70;95.30;;;;;;4932889;29;20489;-69
2022/04/30 14:33:25;;;;;;;3.23;3.03;;;16.70;94.80;;;;;;4929615;29;20592;-69
2022/04/30 14:35:51;;;;;;;2.83;2.70;;;16.60;94.70;;;;;;4933019;29;20477;-69
2022/04/30 14:38:18;;;;;;;3.00;2.80;;;16.50;95.20;;;;;;4933303;29;20902;-69
2022/04/30 14:40:45;;;;;;;5.23;3.20;;;16.40;95.30;;;;;;4932838;29;20489;-69
2022/04/30 14:43:13;;;;;;;2.93;2.83;;;16.30;95.20;;;;;;4933662;29;21002;-69
2022/04/30 14:45:41;;;;;;;3.30;3.00;;;16.30;95.30;;;;;;4933564;29;20587;-68
2022/04/30 14:48:09;;;;;;;3.23;3.03;;;16.40;95.00;;;;;;4933126;29;20544;-68
2022/04/30 14:50:37;;;;;;;3.27;3.07;;;16.40;95.00;;;;;;4932332;29;21051;-69
2022/04/30 14:53:04;;;;;;;3.03;2.93;;;16.40;95.10;;;;;;4933306;29;20473;-68
2022/04/30 14:55:30;;;;;;;2.87;2.67;;;16.50;95.30;;;;;;4933483;29;20539;-69
2022/04/30 14:57:57;;;;;;;2.90;2.80;;;16.60;95.50;;;;;;4933181;29;20845;-68
2022/04/30 15:00:24;;;;;;;3.27;2.93;;;16.60;94.80;;;;;;4932588;29;20469;-69
2022/04/30 15:02:51;;;;;;;3.00;2.80;;;16.60;95.00;;;;;;4934647;29;20470;-68
2022/04/30 15:05:18;;;;;;;3.37;3.07;;;16.50;94.60;;;;;;4936498;29;20473;-68
2022/04/30 15:07:47;;;;;;;3.03;2.80;;;16.40;95.00;;;;;;4936772;29;21077;-68
2022/04/30 15:10:14;;;;;;;3.50;3.20;;;16.30;94.50;;;;;;4936081;29;20557;-68
2022/04/30 15:12:41;;;;;;;3.20;3.00;;;16.20;94.60;;;;;;4929646;29;20528;-68
2022/04/30 15:15:08;;;;;;;3.57;3.30;;;16.20;94.40;;;;;;4936680;29;20473;-68
2022/04/30 15:17:35;;;;;;;3.13;2.93;;;16.20;94.70;;;;;;4936074;29;20949;-68
2022/04/30 15:20:01;;;;;;;2.73;2.63;;;16.20;94.60;;;;;;4935557;29;20492;-68
2022/04/30 15:22:29;;;;;;;3.27;3.17;;;16.10;94.60;;;;;;4936636;29;20494;-68
2022/04/30 15:24:57;;;;;;;3.37;3.17;;;16.10;95.10;;;;;;4936348;29;20620;-68
2022/04/30 15:27:23;;;;;;;3.20;3.00;;;16.10;94.30;;;;;;4936572;29;20903;-68
2022/04/30 15:29:50;;;;;;;3.13;2.93;;;16.10;94.30;;;;;;4935812;29;20470;-68
2022/04/30 15:32:16;;;;;;;2.97;2.87;;;16.00;94.40;;;;;;4935438;29;20485;-68
2022/04/30 15:34:44;;;;;;;4.10;3.80;;;16.00;95.00;;;;;;4936215;29;20465;-68
2022/04/30 15:37:10;;;;;;;3.60;3.40;;;15.90;95.40;;;;;;4936146;29;20461;-69
2022/04/30 15:39:37;;;;;;;4.00;3.80;;;15.90;95.90;;;;;;4935658;29;20516;-69
2022/04/30 15:42:07;;;;;;;5.87;4.00;;;15.90;95.40;;;;;;4936557;29;20831;-68
2022/04/30 15:44:34;;;;;;;4.43;4.03;;;15.80;95.60;;;;;;4928417;29;20461;-69
2022/04/30 15:52:29;;;;;;;3.70;3.50;;;15.80;96.20;;;;;;4935988;29;20877;-69
2022/04/30 15:54:55;;;;;;;4.00;3.80;;;15.80;95.80;;;;;;4935987;29;20465;-69
2022/04/30 15:57:25;;;;;;;4.30;3.50;;;15.80;96.20;;;;;;4935518;29;20477;-69
2022/04/30 15:59:53;;;;;;;3.50;3.40;;;15.70;96.00;;;;;;4934941;29;20560;-69
2022/04/30 16:02:21;;;;;;;3.63;3.40;;;15.60;96.00;;;;;;4935285;29;20559;-69
2022/04/30 16:04:48;;;;;;;4.43;4.23;;;15.60;96.20;;;;;;4935349;29;20576;-69
2022/04/30 16:07:15;;;;;;;3.90;3.70;;;15.50;96.00;;;;;;4935528;29;20974;-70
2022/04/30 16:09:41;;;;;;;3.50;3.40;;;15.50;96.40;;;;;;4935443;29;20473;-70
2022/04/30 16:12:09;;;;;;;3.50;3.30;;;15.40;96.70;;;;;;4935905;29;20493;-70
2022/04/30 16:14:37;;;;;;;3.97;3.77;;;15.40;96.80;;;;;;4958233;23;21706;-69
2022/04/30 16:17:05;;;;;;;4.00;3.80;;;15.30;96.60;;;;;;4993503;28;20455;-69
2022/04/30 16:19:32;;;;;;;3.43;3.23;;;15.30;97.20;;;;;;4992663;28;20517;-72
2022/04/30 16:21:58;;;;;;;3.60;3.50;;;15.30;97.00;;;;;;4993293;28;20517;-71
2022/04/30 16:24:25;;;;;;;3.90;3.80;;;15.30;96.80;;;;;;4993029;28;20467;-71
2022/04/30 16:26:53;;;;;;;4.80;4.50;;;15.20;97.20;;;;;;4993603;28;20462;-69
2022/04/30 16:29:20;;;;;;;4.30;4.00;;;15.20;97.80;;;;;;4993100;28;20498;-70
2022/04/30 16:31:49;;;;;;;3.93;3.83;;;15.00;98.10;;;;;;4993126;28;20459;-71
2022/04/30 16:34:15;;;;;;;5.30;4.90;;;15.00;98.20;;;;;;4990300;28;20517;-71
2022/04/30 16:36:42;;;;;;;5.63;5.10;;;14.90;98.30;;;;;;4992670;28;20466;-70
2022/04/30 16:39:09;;;;;;;5.00;4.70;;;14.90;98.40;;;;;;4993136;28;20896;-70
2022/04/30 16:41:36;;;;;;;5.30;5.00;;;14.80;98.60;;;;;;4994480;28;20471;-72
2022/04/30 16:44:04;;;;;;;4.87;4.57;;;14.80;98.30;;;;;;4994214;28;20927;-70
2022/04/30 16:46:33;;;;;;;4.53;4.27;;;14.80;98.20;;;;;;4993352;28;20898;-70
2022/04/30 16:49:01;;;;;;;4.50;4.30;;;14.80;97.90;;;;;;4992819;28;20509;-72
2022/04/30 16:54:13;;;;;;;5.30;5.10;;;14.80;98.20;;;;;;4992831;28;20585;-70
2022/04/30 16:59:25;;;;;;;7.13;6.50;;;14.70;99.40;;;;;;4992762;28;20573;-70
2022/04/30 17:01:52;;;;;;;5.23;4.73;;;14.70;99.90;;;;;;4992266;28;20466;-70
2022/04/30 17:04:20;;;;;;;6.20;5.70;;;14.60;99.90;;;;;;4992504;28;20518;-72
2022/04/30 17:06:47;;;;;;;6.03;5.50;;;14.60;99.90;;;;;;4992681;28;20498;-70
2022/04/30 17:09:13;;;;;;;6.30;5.70;;;14.50;99.90;;;;;;4992613;28;20565;-70
2022/04/30 17:11:40;;;;;;;11.53;10.43;;;14.40;99.90;;;;;;4984554;28;20836;-70
2022/04/30 17:14:07;;;;;;;10.77;9.73;;;14.30;99.90;;;;;;4992269;28;20459;-71
2022/04/30 17:16:33;;;;;;;7.30;6.70;;;14.30;99.90;;;;;;4992233;28;20483;-70
2022/04/30 17:19:01;;;;;;;6.57;6.17;;;14.20;99.90;;;;;;4992244;28;20529;-70
2022/04/30 17:21:29;;;;;;;4.37;3.93;;;14.20;99.90;;;;;;4991516;28;20490;-71
2022/04/30 17:23:55;;;;;;;4.67;4.47;;;14.20;99.90;;;;;;4992053;28;20497;-70
2022/04/30 17:26:22;;;;;;;5.30;3.57;;;14.10;99.90;;;;;;4991174;28;20487;-70
2022/04/30 17:28:49;;;;;;;6.23;5.73;;;14.10;99.90;;;;;;4992089;28;20541;-71
2022/04/30 17:39:30;;;;;;;4.53;4.23;;;13.90;99.90;;;;;;4991781;28;20927;-71
2022/04/30 17:41:58;;;;;;;4.43;4.03;;;13.80;99.90;;;;;;4992171;28;20466;-71
2022/04/30 17:44:25;;;;;;;5.47;4.97;;;13.80;99.90;;;;;;4984886;28;20498;-72